2011-07-27 A6 SL  583  32.63  80.5  11.5  33.45  5.40  Back Thruout Ins  Super C Blur  My Rebate  Craigie Dove  8   
2011-07-21 E6 SL  583  32.34  80  16.5  33.48  7.10  No Threat Mt  Stand Up Chuck  Tonic Road  Ashley Beth Uhl  8   
2011-07-15 E10 SL  583  32.04  80  12.5  32.91  6.80  Never Prominent Mt  Flying Mustaine  Last Outlaw  Tonic Road  8   
2011-07-09 A7 SL  583  32.15  81  20.5  33.59  23.60  Jammed 1st Trn Wd  Mr Reliable  Lost Symbol  K's Shay  9   
2011-07-04 A13 SL  583  32.23  80.5  11  33.01  14.40  Weakened Str Ins  Kid Around  Cbj Jergie  Turbo Refresher  8   
2011-06-29 A11 SL  583  32.42  81  14.5  33.45  6.40  Tiring Str Mt  Chubby  Braska Odette  Flying Rocca  8   
2011-06-22 A10 SL  583  32.62  80.5  hd  32.62  6.40  Despite Trble Mt  Dk Peter Hayes  Kl's Paul Can  Corsair  8   
2011-06-15 A6 SL  583  32.81  81  .5  32.85  5.10  Closing Fast, Mt  Iwantcookie  Kiowa Kj Dream  Mr Reliable  8   
2011-06-08 A8 SL  583  32.07  80.5  16.5  33.24  7.10  Blckd & Bmpd 1st Trn  Touch Connors  Lost Symbol  Oshkosh Paris  8   
2011-06-01 A13 SL  583  32.49  79.5  32.99  2.90  Blckd Bckstr Mt  Amf Ex Boxer  Touch Connors  Cbj Dublin  8   
2011-05-26 E17 SL  583  32.31  80.5  10.5  33.05  8.40  Bmpd 1st Trn Mt  Quick Out Right  Flaming Rusty  Kinetic Karma  8   
2011-05-19 E5 SL  583  32.65  81  3.5 4 2.5  32.65  2.60  Cleared Early Trble  Boone County  Tommy Lasorda  Braska Odette  8   
2011-05-12 E17 SL  660  37.46  81  3 37.67  1.90  Gaveway Str Mt  TB  Absopositively  Mulberry Satin  R Megnificent  8   
2011-05-05 S1 SL  583  32.13  81  2.5 3 32.13    Easily Mt    Easi Chicken  No Referee  Ctw Kathleen  8   
2011-02-18 E17 SL  660  37.03  80.5  16.5  38.17  3.50  Bmpd Esc Turn Mt  In The Limelight  Moll's Gap  Ll's Franko  8   
2011-02-11 E5 SL  583  32.15  81  6.5  32.60  4.30  Evenly Wd  Ozark Pawnee  Hot Hot Heat  U Too Shay  8   
2011-02-05 E16 SL  583  32.71  80.5  6.5  33.17  7.10  Bmpd Early Wd  Cool Zone  Bd's Hoke  Pb's Man Up  8   
2011-01-31 T16 SL  583  32.34  81  .5  32.38  5.40  Closing Fast Wd  No Referee  Jonathan Swift  K's Shay  8   
2011-01-26 A5 SL  583  32.51  81.5  7.5  33.02  9.60  Game Effort Wd  Dodgem Bullets  Cbj Herm  Wehunt  8   
2011-01-20 E16 SL  583  32.12  81.5  17  33.31  4.40  Faded Late Ins  Pals Got Ya  Cool Zone  Cyclone Drive  8   
2011-01-13 E5 SL  583  33.41  81.5  33.54  7.40  Followed Leaders Wd  Philip Glass  Kl's Buster  Braska Jet  8   
2011-01-06 E17 SL  583  32.15  80.5  18.5  33.43  10.30  Back Thruout Wd  Cg's Wow Wubbzy  Kb's Tuff Kid  Philip Glass  8   
2010-12-31 E14 SL  583  32.96  79.5  33.53  3.10  Bmpd Brk & 1st Trn  AA  True Compass  U Too Shay  Tomi's Inazuma  9   
2010-12-22 A18 SL  583  32.44  81.5  33.00  6.30  Late Gain Wd  AA  Tb's Final Stand  Dazziq  Chestercopperpot  8   
2010-12-16 E11 SL  583  32.40  81  13.5  33.34  6.40  Bmpd 1st Turn Wd  AA  U Too Shay  Tb's Final Stand  Rumbling Thor  8   
2010-12-11 E2 SL  583  31.85  81  3 31.85  4.80  Easily Wd  Easi David  Braska Dagwood  Pa's Husker  8   
2010-12-08 A10 SL  583  32.68  80.5  .5 3 32.68  2.70  Handily Wd  My Boogie Shoes  Corsair  Tom Allman  8   
2010-12-02 E2 SL  583  32.10  79.5  10  32.81  5.40  Blckd Far Turn Wd  Silver Idol  Braska Dagwood  Cool Zone  8   
2010-11-26 A15 SL  583  32.00  80  10  32.70  3.50  Blckd Early & Late  Pmb Freebee  Flying Aviator  Ws's Cast Iron  8   
2010-11-20 E16 SL  583  32.30  79.5  6.5  32.74  5.10  Collided 1st Trn Wd  Blickity  Oaks Gem Brandy  Djays Almighty  9   
2010-11-17 A11 SL  583  31.96  80.5  6.5  32.40  13.20  Steady Gain Mt  AA  Ct Buck Wild  Kebo Kool Eddie  Ba My Charity  8   
2010-11-12 E11 SL  583  32.09  80  7.5  32.62  7.00  Collided 1st Trn Wd  AA  Unit  Kebo Kool Eddie  Blickity  8   
2010-11-06 E11 SL  583  31.61  79.5  16.5  32.78  3.90  Evenly Ins  AA  Lo Norman  Private Stock  Easi Chicken  8   
2010-11-01 T11 SL  583  31.49  79.5  31.98  5.30  Blckd Entrng Bckstr  AA  Lo Norman  Dacknabit  Private Stock  8   
2010-10-27 A11 SL  583  32.10  80  5.5  32.47  7.10  Hard Try Wd  AA  Phoenix Shake  Devil Of A Deal  Dacknabit  8   
2010-10-20 A15 SL  583  32.14  80  32.78  24.70  Blckd 1st Trn Ins  SAA  Silver Idol  Uss Free Will  Dazziq  8   
2010-10-15 E15 SL  583  32.66  79.5  8.5  33.26  3.40  Collided 1st Trn Mt  SAA  Hl's Robert  Bd's Niles  Dazziq  8   
2010-10-11 T18 SL  583  32.40  79.5  32.53  8.00  Bmpd 1st Turn Mt  AA  Braska Trump  Rumbling Thor  Djays Freakn Out  8   
2010-10-02 A5 SL  583  31.89  80.5  3 4.5 4.5  31.89  6.00  Box To Wire Wd  Oshkosh Griffith  Jim Morrison  Keeper Spode  9   
2010-09-27 T2 SL  583  32.75  80  4.5  33.05  3.70  Blckd & Bmpd 1st Trn  Qrixin  Bd's Phish  Celtic Fox  8   
2010-09-22 A11 SL  583  32.07  80  12  32.90  5.10  Bmpd 1st Turn Mt  AA  Push Lauren  Pj's By Design  Flying Bethlehem  8   
2010-09-17 L12 SL  583  32.22  79.5  32.70  14.20  Good Effort Mt  AA  Radiant Red  Ediola  U Too Jitterbug  8   
2010-09-11 A16 SL  583  31.92  80  7.5  32.45  2.10  Blckd 1st Turn Mt  AA  Uss Free Will  Bd's Niles  Flying Chelyan  8   
2010-09-04 E6 SL  583  32.08  80  3 3.5 32.08  5.30  Going Away Wd  AA  Starz Tic Tac  Ww's Bruce Lee  Pmb Freeferall  8   
2010-09-01 A16 SL  583  31.82  79.5  32.44  3.90  Best Of The Rest Wd  AA  Ediola  Oshkosh Detroit  Bd's Niles  8   
2010-08-26 E15 SL  583  31.97  79  3.5 4.5 31.97  6.10  Easily Wd  Bd's Hoke  N Kendall  Uss Free Will  8   
2010-08-20 L8 SL  583  32.08  80  3.5  32.33  3.60  Hard Try Wd  Ba My Charity  Rck Rambo  Pc's Venus  9   
2010-08-14 E7 SL  583  32.29  79  1.5  32.41  2.00  Always A Threat Mt  Oshkosh Detroit  Site Forsoreeyes  Kt's Thurles  8   
2010-08-11 A15 SL  583  32.98  79  2.5  33.15  2.80  Bmpd 1st Turn Wd  Ww's Brandon Lee  Site Forsoreeyes  Kt's Thurles  8   
2010-08-06 L10 SL  583  32.43  80  1.5 3.5 2.5  32.43  3.50  Withstood Pressure  Craigie Go Daddy  Bd's Phish  Ozark Big Blue  8   
2010-07-31 E12 SL  583  32.22  79  3 3.5 32.22  1.30  Drew Away Wd  Bugtussle John  Let It Be  Cbj Go Go Gabe  9   
2010-07-26 T12 SL  583  32.73  79  32.80  3.00  Threat For Win Mt  Braska Noris  Oaks Zam Zoey  Craigie Monaco  9   
2010-07-22 S3 SL  583  32.46  80  3.5 32.46    All Alone Mt    Bow Paycheck  Zytra  Djays Haywire  8   
2010-07-08 E12 TU  550  31.05  82  5.5  31.44  6.20  Up Late For Show, Md  Rlm's Danger  Boc's Martini  Loved Az Miley  8   
2010-07-05 E12 TU  550  31.40  82.5  31.69  1.60  Blocked 1st Turn  Eye In Team  Rosemary Rumble  Flat Out Reina  8   
2010-07-01 E12 TU  550  31.21  81.5  31.35  2.50  Steady Gain To Place  Past The Point  Rams Georgia Mac  Lakeside Girl  8   
2010-06-28 E6 TU  550  30.91  82  .5 30.91  .50  Going Away, Mtk.  Rams Georgia Mac  Rosemary Rumble  Bella Maud  8   
2010-06-24 E11 TU  550  30.87  81.5  11.5  31.68  4.40  Jammed 1st Turn  Turbo Celeste  Holy Diver  Twenty Two Ruger  8   
2010-06-19 E12 TU  550  31.04  82  13  31.95  6.90  No Factor  Turbo Celeste  Phoenix Frenzy  Holy Diver  8   
2010-06-16 E12 TU  550  31.41  82.5  ns  31.41  2.00  Up At Wire, Inside  Win Asu  Slatex Breakaway  Koyote Tina  8   
2010-06-11 E1 TU  550  31.25  82  31.39  1.50  Steady Drive, Midtk  Bella Well Kept  Snap Fu  Red I Reward  8   
2010-06-08 E9 TU  550  30.89  82  13  31.81  5.00  Early Trouble  Turbo Celeste  Rc Lanie  Win Asu  8   
2010-06-04 E12 TU  550  31.12  82.5  7 7 7.5  31.12  3.10  Much The Best, Midtk  Koyote Sadie  Rlm's Danger  Mississippi Mule  8   
2010-06-01 E6 TU  550  31.04  82.5  13.5  31.97  1.00  Blocked Frontstretch  Rams Stacey E  Bella Past Tyme  Oxbow Bruin  8   
2010-05-28 E12 TU  550  31.14  82.5  4 6 7.5  31.14  1.40  Extended Lead  Past The Point  Bella Beltran  Ucme Gimmesmore  8   
2010-05-24 E12 TU  550  31.18  82  31.32  12.50  Good Late Rush, Mtk.  Turbo Celeste  Token White  Red I Reward  8   
2010-05-19 E1 TU  550  31.25  83  31.82  4.20  Some Late Gain  Gimme My Dough  Terwilliger  Tnj Red Fox  8   
2010-05-15 E5 TU  550  31.07  82.5  15  32.11  3.20  Bumped 1st Turn  Slatex Breakaway  Tnj Billy Jack  King Of The City  8   
2010-05-11 E2 TU  550  31.79  83  31.79  .80  Driving Winner, Md  King Of Battle  Phoenix Frenzy  Divine Creation  8   
2010-05-07 E6 TU  550  31.21  82  31.77  5.00  Even After Break  Rams Dixie Lynn  Past The Point  Holdem Az Dutch  7   
2010-05-04 E12 TU  550  31.76  82  3.5  32.01  5.90  Just Missed Show  Cdc Make Me Stop  Yannis Belichick  Tnj Billy Jack  8   
2010-04-30 E11 TU  550  31.71  82  11  32.48  5.00  Collided 1st Turn  Terwilliger  Rc Lanie  Wildberry Diner  8   
2010-04-27 E11 TU  550  31.48  82.5  14.5  32.51  2.60  Never In It  Gimme My Dough  Primed Az Calais  Rc Lanie  8   
2010-04-22 E11 TU  550  31.93  82  2.5  31.93  2.10  Big Rush To Win, Mtk  Boc's Ms Memory  Red I War Paint  Phoenix Flash  8   
2010-04-19 E12 TU  550  31.76  82  4 4 4.5  31.76  3.00  Won Handily, Midtk  Kiowa Will  Boc's Bombsquad  Rlm's Desperse  8   
2010-04-15 E11 TU  550  31.20  82  10.5  31.93  3.00  Varied Little  Phoenix Ipod  Red I War Paint  Black Native  8   
2010-04-10 E6 TU  550  31.71  82  11.5  32.50  1.60  Not In It  Wr Putitallonme  Rlm's Danger  Boc's Rocketeer  7   
2010-04-06 E12 TU  550  31.68  82.5  32.23  .70  Early Contender  Lc's Adaboy Scar  I Love Vegas  Bella Johan  8   
2010-04-01 E9 TU  550  31.83  82  32.31  .90  Back Early  Kiowa Barfly  Turbo Walter  Lc's Adaboy Scar  8   
2010-03-29 E12 TU  550  31.42  82  1 4 31.42  1.10  Won Handily, Midtk  Oj Helly  Turbo St Paul  Rc Lanie  8   
2010-03-25 E1 TU  550  31.39  81.5  3 5 31.39  1.00  Going Away, Inside  Phoenix Ipod  Lc's Blackjack  Holy Sepulchre  8   
2010-03-20 E4 TU  550  31.66  82.5  32.02  1.30  Drove For Place, Mid  Ww Gale Persian  Gimme My Dough  Slatex Ruby Dee  8   
2010-03-16 E9 TU  550  31.41  81.5  7 10 14.5  31.41  1.10  Much The Best, Insd  Red I Tracker  Pj's Flash  Soft Spoken  7   
2010-03-12 E14 TU  550  32.13  82  32.33  3.90  Not Far Off  Turbo Dude  Boc's Ms Memory  Clever Jake  8   
2010-03-09 E12 TU  550  31.55  82  9.5  32.23  1.20  Slight Gain  Kiowa Hollyhock  Turbo St Paul  Clever Erin  8   
2010-03-04 E1 TU  550  31.29  81.5  6.5  31.76  2.20  Some Early Gain  Bella Explorer  Lk Johnnie  Rams Chance  8   
2010-03-01 E14 TU  550  31.15  82.5  1 2 5.5  31.15  1.00  With Ease, Mtk.  Flortex Mary  Bella Vortac  Past The Point  8   
2010-02-24 E7 TU  550  31.46  83  32.02  2.50  Brief Threat  Bella Vortac  Bonus Size  Clever Erin  8   
2010-02-19 E9 TU  550  31.42  82.5  9.5  32.10  3.10  Brief Try, Faded  Turbo Celeste  Turbo St Paul  Bella Vortac  8   
2010-02-15 E13 TU  550  31.93  82  11.5  32.75  .80  Slight Gain  Lc's Adaboy Scar  Costar Driver  Kiowa He Man  8   
2010-02-11 E4 TU  550  31.15  82  6 6 10  31.15  1.30  Won Easily, Midtk  Bonus Size  Token White  Bella Lemon Drop  8   
2010-02-06 E13 TU  550  32.20  82  hd  32.22  1.10  From Way Back, Mdtrk  Token White  Turbo Walter  Pj's Flash  8   
2010-02-03 E11 TU  550  30.78  82  30.78  1.20  Drawing Out, Mtk.  Rr Dance Man  Wildberry Diner  Bc My Lady Love  8   
2010-01-29 E13 TU  550  31.38  83  hd  31.40  .20  Just Missed, Midtk  Savvy Single  Mama's Baby Shea  Cdc Movin On  8   
2010-01-23 E5 TU  550  30.78  81.5  2.5  30.97  4.80  Closed For Place, Ot  Rlm's Desperse  Clever Shelly  Ak's Fruitcake  8   
2010-01-19 E6 TU  550  30.47  81  ns 30.47  .20  Drawing Out, Mtk.  Turbo St Paul  Coldwater Kenyon  Bella Moveover  8   
2010-01-14 E8 TU  550  30.55  81  3 5 11  30.55  2.70  Never Looked Bk, Md  Bella Vortac  Ucme Gimmesmore  Glamour Girl  8   
2010-01-08 E7 TU  550  31.02  81  5.5  31.40  1.40  Drove For Show, Md  Bella Garden  Boc's Miss Madie  Mama's Baby Shea  8   
2010-01-05 E11 TU  550  30.64  81  30.64  1.30  Up In Stretch  Concho Wizard  Spencer Bell  Oh And Forever  7   
2009-12-31 E11 TU  550  30.61  81  1.5  30.71  5.20  Strong Effort, Midtk  Turbo St Paul  Zoomndanpatch  Concho Wizard  8   
2009-12-24 E13 TU  550  30.88  81.5  31.38  3.10  No Mishaps  Flortex Mary  Past The Point  Slatex Ruby Dee  7   
2009-12-19 E9 TU  550  30.05  81.5  19.5  31.40  5.40  Early Rush  Bella Pericles  Boc's Martini  Turbo St Paul  8   
2009-12-16 E8 TU  550  30.54  82  8.5  31.12  3.00  No Mishaps  Zoomndanpatch  Oxbow Barn Owl  Boc's Boo Boo  8   
2009-12-11 E7 TU  550  30.26  83  3 7 11  30.26  1.50  Won Going Away  Crri Classy Cleo  Boc's Martini  Turbo St Paul  8   
2009-12-05 E9 TU  550  30.51  82.5  10.5  31.26  4.90  Hanging Blanket  Bella Whoopi  Turbo St Paul  Clever Shelly  7   
2009-12-02 E7 TU  550  30.26  83  2 1 1.5  30.26  3.60  Held Underpressure  Clever Shelly  Cdc Jack  Turbo St Paul  7   
2009-11-27 E7 TU  550  30.97  81.5  2.5  31.15  1.20  Not Far Off  TA  Cdc Jack  Rd's Ken  Bella Divider  8   
2009-11-20 E11 TU  550  30.23  81.5  3 3 8.5  30.23  1.00  Extended Lead, Insd  TA  D Janet Marie  Clever Jake  Flying Clarkson  8   
2009-11-17 E9 TU  550  30.53  81.5  10.5  31.27  8.50  Brief Try  Koyote Jocko  Curious Algy  Bella Pericles  8   
2009-11-12 E9 TU  550  30.40  81.5  14.5  31.40  5.20  No Contender  Gimme My Dough  Curious Algy  Pjs Mr. Ready  8   
2009-11-06 E11 TU  550  30.26  81.5  .5 9.5  30.26  3.00  Driving Winner  TA  Clever Melo  Tnj Cricket  Boc's Cruznkate  8   
2009-11-03 E7 TU  550  31.03  82  10  31.73  9.40  Bumped Frontstretch  TA  Boc's Ms Memory  Red I Overtime  Bella Tammy  8   
2009-10-29 E4 TU  550  30.40  82  3 5 8.5  30.40  .60  Going Away, Midtrack  TB  Its My Turn  Kiowa Herohudson  Red I Tracker  8   
2009-10-24 E11 TU  550  30.68  82  11  31.46  28.20  No Factor  Kiowa Barfly  Kbj Golden Girl  Rds Merrygoround  8   
2009-10-20 E7 TU  550  31.08  82.5  31.28  2.80  Closed For Show, Md  TA  Kbj Golden Girl  Ac Galaxy Menace  Tnj Cricket  8   
2009-10-15 E9 TU  550  30.59  82  31.21  4.80  Closed For Show  TA  Boc's Martini  Bc Victory Girl  Super Az Breston  8   
2009-10-09 E11 TU  550  30.74  82  9.5  31.39  3.50  No Threat  TA  Koyote Jocko  Tnj Batey  Bc Precious Gem  8   
2009-10-06 E9 TU  550  30.79  82.5  11.5  31.59  2.80  No Contender  Gimme My Dough  Tnj Darian  Boc's Gimmearing  7   
2009-10-01 E6 TU  550  31.04  81.5  3.5  31.04  .60  Drove Far Turn, Md  TA  Bella Tammy  Red I War Dance  Cdc Jack  8   
2009-09-26 E9 TU  550  30.56  83  20  31.95  7.80  Faded Back  Rr Dance Man  Tnj Batey  Boc's Martini  8   
2009-09-23 E7 TU  550  31.09  83  31.16  1.60  Closed On Leader  Bella Brancusi  Clever Shelly  Kiowa Hero Heidi  8   
2009-09-18 E7 TU  550  30.77  83  6.5  31.21  1.70  Next Best, Midtrack  Bella Pericles  Lph Tyee  Slatex Breakaway  8   
2009-09-15 E9 TU  550  31.06  82  16.5  32.22  3.80  No Threat  Boc's Martini  Clever Melo  Boc's Glance  8   
2009-09-10 E9 TU  550  31.37  82  3.5  31.37  .50  Battled For Win, Out  Flying Clarkson  Red I Taps  Boc's Gimmearing  8   
2009-09-07 E7 TU  550  31.05  82  nose 5.5  31.05  1.60  Won Handily, Mdtrk  TA  Kbj Golden Girl  Ba Misty  Boc's Mandalay  8   
2009-09-02 E9 TU  550  31.04  82.5  3.5  31.28  2.30  Always A Factor, Md  Bella Pericles  Rds Merrygoround  Tnj Mountain Dew  8   
2009-08-28 E12 TU  550  31.20  81  ns  31.21  4.30  Just Missed, Wide  TA  Eli's Special Dj  Bella Chic  Crri Jet Stream  8   
2009-08-25 E7 TU  550  31.08  81  31.08  6.50  Drew Out Late, Mid  Tnj Batey  Ndt Tym Amy  Boc's Rocketeer  8   
2009-08-19 E9 TU  550  31.20  82  1 31.20  5.30  Drew Out Late, Midtk  TB  Clever Marcus  Ultimate Rascal  Kbj Golden Girl  8   
2009-08-14 E9 TU  550  31.84  81  2.5  32.01  3.10  Some Effort, Outsd  TB  Ndt Tym Amy  Boc's Text Tori  Cdc Sure Bet  8   
2009-08-11 E5 TU  550  31.57  81  13  32.47  2.50  Dropped Back Early  Kbj Golden Girl  Ndt Tym Amy  Bella Canseco  8   
2009-08-06 E9 TU  550  31.35  81  11.5  32.16  3.00  No Factor  Red I Reward  Ale Cookie  Clever Marcus  8   
2009-08-01 E12 TU  550  31.84  81  6.5  32.30  1.10  Early Trouble  Bella Chic  Red I Overtime  Vals Fast Girl  8   
2009-07-29 E10 TU  550  31.33  81.5  13.5  32.26  6.20  Not A Factor  Boc's Martini  Red I Overtime  Rlm's Rush  8   
2009-07-24 E12 TU  550  31.19  80.5  20  32.60  3.50  Hit 1st Turn  TA  Red I Reward  Tnj Dancer  Boc's Ms Memory  8   
2009-07-21 E12 TU  550  31.36  81  31.36  3.80  Fast Finish, Midtk  Rtz Cool Beans  Ds Kelsey  Boc's Cool Cody  8   
2009-07-15 E12 TU  550  31.48  80.5  1.5  31.48  5.60  Drove For Win, Outsd  TA  Boc's Martini  Red I Reward  Bella Tammy  8   
2009-07-10 E7 TU  550  31.40  81  31.83  3.00  Some Effort, Inside  TA  Red I Reward  Lph Tyee  Kiowa Barfly  8   
2009-07-07 E11 TU  550  31.46  81  4.5  31.77  2.10  Some Effort, Inside  Slatex Breakaway  Kiowa Barfly  Boc's Rocketeer  8   
2009-07-01 E8 TU  550  31.38  81.5  3.5  31.64  1.50  Rallied For Show, Ot  Slatex Breakaway  Bella Tammy  Boc's Rocketeer  8   
2009-06-26 E11 TU  550  31.38  81  31.38  1.90  Fast Finish, Midtk  Mc Magnum  Boc's Rocketeer  Clever Jake  8   
2009-06-23 E12 TU  550  31.33  82  3 4 31.33  3.10  Won Handily, Midtk  Flying Brundage  Rr Dance Man  Crri Classy Cleo  7   
2009-06-18 E10 TU  550  31.52  82  31.52  26.50  Drew Out Late, Midtk  Clever Psycho  Mc Magnum  Tnj Dancer  7   
2009-06-13 E8 TU  550  31.32  82  4.5  31.63  9.40  Good Try, Midtrack  Rr Dance Man  Clever Psycho  Mc Magnum  8   
2009-06-09 E5 TU  550  31.76  82  31.76  6.20  Took Over Far Tn, Md  Boc's Lob Passer  Spyros  Naughty Brian  8   
2009-06-04 E11 TU  550  31.90  81  32.52  5.00  Never Improved  Mc Shotgun  Tnj Red Fox  Ww Essy's Time  8   
2009-05-27 E7 TU  550  31.81  81  31.87  2.40  Not Far Off, Mdtrk  Red I Overtime  Cris Willow  Kt Fender Bender  8   
2009-05-23 E7 TU  550  31.58  82  1.5  31.67  1.40  Late Rush, Midtrack  Princess Belle  Kt Fender Bender  Video Girl  8   
2009-05-20 E7 TU  550  31.59  82  10.5  32.31  5.80  Not A Factor  Clever Jake  Boc's Rocketeer  Kiowa Barfly  8   
2009-05-14 E12 TU  550  31.55  81.5  11.5  32.37  9.60  Bumped 1st Turn  Clever Melo  Eat N Run  Boc's Gimmearing  8   
2009-05-09 E8 TU  550  31.59  82  32.22  3.70  Blocked 1st Turn  TA  Eat N Run  Cdc Mustang  Clever Eddie  7   
2009-05-05 E8 TU  550  31.09  82.5  3 5 8.5  31.09  5.80  Unchallenged, Outsd  Boc's Baby Bob  Lph Come To Play  Mulberry Nemo  8   
2009-04-30 E4 TU  550  31.67  82.5  7.5  32.21  2.10  No Factor  Ultimate Rascal  Rd's Fester  Lph Come To Play  8   
2009-04-25 E12 TU  550  31.75  82.5  10.5  32.50  3.70  Blocked 1st Turn  Eat N Run  Cris Willow  Power Rate  8   
2009-04-22 E3 TU  550  31.56  82.5  3 4 7.5  31.56  1.30  Won With Ease, Mid  Lph Forecaster  Wr Camptown  Ww's Branden  8   
2009-04-17 E10 TU  550  31.75  83  32.17  3.90  Even After Break  Naughty Alondra  Kk's Bernadette  Lph Forecaster  8   
2009-04-14 E11 TU  550  30.95  82  15  32.00  6.50  Dropped Back Early  Clever Jake  Concho Tootsie  Bc Always Sunny  8   
2009-04-08 E7 TU  550  31.28  81.5  12.5  32.17  5.20  Collided 1st Turn  Red I Recharge  Rlm's Rush  Boc's Bruiser  8   
2009-04-03 E11 TU  550  31.77  82  8.5  32.35  3.20  No Contender  Boc's Clara  Crri Jet Stream  Rlm's Rush  8   
2009-03-31 E5 TU  550  31.88  81.5  3.5  32.14  4.40  Closed Some, Midtk  Beckley Wv  Phoenix Cougar  Clever Marcus  8   
2009-03-26 E6 TU  550  31.50  83  5.5  31.89  7.10  Closed Thruout, Md  Munchkin  Boc's Maggie  Twitty Twister  8   
2009-03-20 E12 TU  550  31.56  82.5  5.5  31.95  3.90  No Threat  Boc's Ethel  Cdc Harley  Clever Psycho  8   
2009-03-14 E12 TU  550  31.80  82.5  3.5  32.03  2.90  Never Varied  Clever Evelyn  Ultimate Rascal  Ac Galaxy Karma  8   
2009-03-11 E6 TU  550  31.27  82  31.27  1.90  Driving Winner, Md  Twitty Twister  Boc's Maggie  Chicago Mickey  8   
2009-03-05 E12 TU  550  31.63  82.5  10.5  32.37  2.90  No Contender  Boc's Ethel  Ac Galaxy Kismet  Red I Recharge  8   
2009-02-28 E9 TU  550  31.47  83  14  32.44  2.00  Stumbled Frntstrch  Clever Psycho  Red I Recharge  Boc's Clara  8   
2009-02-25 E8 TU  550  31.50  82.5  11.5  32.31  2.90  Hit 1st Turn  Power Home  Ac Galaxy Kismet  Boc's Miss Madie  8   
2009-02-20 E7 TU  550  31.66  82  ns  31.65  1.60  Closed For Place  Bella Tammy  Rlm's Rush  Phoenix Cougar  8   
2009-02-17 E9 TU  550  31.29  82.5  31.29  1.40  Gained For Win, Mid  Kk's Mazzie  Rlm's Rush  Ba My Grace  8   
2009-02-11 E9 TU  550  30.84  83  3 5 12.5  30.84  2.90  Never Looked Back,Md  Red I Reward  Boc's Rocketeer  Bella Tammy  8   
2009-02-06 E6 TU  550  31.58  83  6.5  32.05  5.90  Slight Gain  TA  Rd's Ken  Clever Marcus  Kiowa Barfly  8   
2009-02-03 E12 TU  550  31.63  81  31.85  4.10  Bumped 1st Turn, Md  Boc's Cool Cody  Greyt Sky  Still Strugglin  8   
2009-01-29 E9 TU  550  31.40  82  31.76  .90  Closed For Show, Mid  Ww Gale Persian  Boc's Boo Boo  Mc Magnum  8   
2009-01-24 E11 TU  550  31.33  81  31.33  9.20  Winning Drive, Mid  Mc Magnum  Munchkin  Power Home  8   
2009-01-21 E10 TU  550  31.15  82  10  31.86  3.50  Not A Factor  Boc's Martini  Rd's Ken  Cdc Sure Bet  8   
2009-01-16 E10 TU  550  31.30  82  6.5  31.30  5.70  Drove Far Turn, Md  Kiowa Barfly  Cdc Sure Bet  Turbo Salem  8   
2009-01-13 E13 TU  550  31.34  81.5  3.5  31.60  2.70  Drove For Show  Slatex Breakaway  Clever Allen  Boc's Fannie Mae  8   
2009-01-07 E13 TU  550  31.25  81.5  31.88  8.40  Tried Too Late  Boc's Cool Cody  Cdc Harley  Jiminy Charlotte  8   
2009-01-02 E6 TU  550  31.05  81.5  3 5 7.5  31.05  .70  Going Away, Midtk  Bella Ramses  Clever Ester  Red I Fern  8   
2008-12-30 E12 TU  550  31.41  81.5  32.05  25.00  Always Last  Mc Magnum  Cdc Sure Bet  Clever Allen  8   
2008-12-20 E8 TU  550  31.28  81  10  31.99  6.90  Lost Ground Early  Slatex Ruby Dee  Boc's Martini  Cdc Sure Bet  8   
2008-12-17 E13 TU  550  31.79  81  11  32.57  3.90  Not In It  Clever Psycho  Wjs Casino Gal  Bella Pericles  8   
2008-12-11 E12 TU  550  31.17  81  5 5 31.17  2.20  Won With Ease, Md  Bella Ramses  Red I Key Way  Myty Bobby  8   
2008-12-06 E4 TU  550  31.47  81.5  6.5  31.91  5.10  Game Effort, Mid  Cdc Sure Bet  Boc's Maggie  Ndt Tym Bingo  8   
2008-12-02 E9 TU  550  31.25  82.5  10.5  31.99  5.30  Never In It  Turbo Salem  Boc's Martini  Valley Cherrypie  8   
2008-11-26 E6 TU  550  31.95  82  12.5  32.84  2.40  Hit 1st Turn  Cl Doctor Smith  Naughty Brian  Boc's Maggie  8   
2008-11-20 E12 TU  550  31.82  82  32.03  47.50  Closed For Show  Ac Galaxy Kismet  Slatex Ruby Dee  Boc's On Edge  8   
2008-11-15 E12 TU  550  31.33  82  7.5  31.84  11.40  No Mishaps  Rlm's Wanda  Ba My Grace  Power Home  8   
2008-11-11 E8 TU  550  31.45  82  ns 3.5  31.45  19.20  Drew Out Late, Md  Hilltex General  ww's opal  Lph Tuff Stuff  8   
2008-11-06 E5 TU  550  31.56  82.5  14  32.55  31.30  No Factor  Ba My Grace  BL Flashy Rocky  Hilltex General  8   
2008-11-01 E8 TU  550  31.84  81.5  14.5  32.86  14.00  Not In It  Myty Bobby  Lph Tuff Stuff  Dutch Angelic  8   
2008-10-29 E10 TU  550  32.02  82  2.5  32.02  3.00  From Way Back  Ronnie Gene  Clever Cierra  Lph Fire N Ice  8   
2008-10-23 E11 TU  550  32.11  81.5  17.5  33.33  7.00  Outrun For Place  Mulberry Rizzo  Ww's Paige  Kacheeka  8   
2008-10-18 E11 TU  550  32.68  81  33.10  4.40  Not A Threat  Kiowa Toe Dance  Power Power  Ns Exclusive  8   
2008-10-15 E1 TU  550  32.67  81  33.22  3.10  No Contender  Kk's Bernadette  Lacy Lakeview  Ww Essy's Time  8   
2008-10-10 E5 TU  550  32.83  81.5  nk  32.86  7.50  Strong Effort, Insd  Hilltex General  Clever Marcus  Eli's Earthquake  8   
2008-10-04 E6 TU  550  32.84  81.5  32.84  5.70  Driving Winner, Mid  Still Strugglin  Figs Tierna  Fabulous Event  8   
2008-10-01 S1 TU  550  33.27  82  33.83    Bumped 1st Turn    Lph Mexicobandit  Natalee's Star  Ww's Branden  7   
2008-09-27 S4 TU  550  33.38  82  7.5  33.92    Late Effort    Natalee's Star  Lph Mexicobandit  Lph Forest Sky  6   
2008-08-30 S2 TU  550  32.15  81    OOP    Trailed    Lph I Me And You  Hi Hat Hatti  Lph Tuff Stuff  8   
2008-08-19 E8 TU  550  33.25  81.5  28.5  35.23  14.90  No Factor  TD  Figs Tierna  Ww's Opal  Jj's Lets Dance  8   
2008-08-14 E4 TU  550  32.83  81  17  34.03  2.40  Blocked Frontstretch  TD  Bet More Money  Concho Reuben  Lph Mini Cooper  8   
2008-08-08 E4 TU  550  32.80  81  18  34.07  2.10  No Mishaps  Mulberry Ely  Lph Jazzephizzle  Thispatchisforu  8   
2008-08-05 E4 TU  550  32.17  80  2 2 32.17  3.80  Won Handily Md  TM  Ww Gale Persian  Ww Tigger  Lph Mini Cooper  8   
2008-07-31 E2 TU  550  33.42  82  13  34.34  1.30  Gradual Fade  TM  Mulberry Ely  Lph Topekabandit  Rize Ta Power  8   
2008-07-26 S8 TU  550  32.09  80  1 3 9.5  32.09    Won Handily, Insd    La Maya  Bella Brancusi  La Aztec  5   
2008-07-23 S6 TU  550  32.59  80.5  15  33.65    Up For Show Md    Bella Brancusi  Thispatchisforu  Austin Chalk  6   
2008-07-16 S3 TU  550  32.37  81.5  3 3 32.37    Box To Wire    Bella Kingnarmer  Bella Brancusi  Bella Morgan  4